Terminal Aerodrome Forecast
Issued by NWS

Home | Current Version | Previous Version | Text Only | Print | Product List | Glossary On
Versions: 1 2 3 4 5 6 7 8 9 10 11 12 13 14 15 16
000
FTUS41 KBGM 040520
TAFITH
TAF
KITH 040520Z 0406/0506 16005KT P6SM FEW080
     FM041500 21010G20KT P6SM FEW080
     FM050200 22004KT P6SM OVC050
      TEMPO 0504/0506 -SHRA=

USA.gov is the U.S. government's official web portal to all federal, state and local government web resources and services.